KBIE/BIE METAR and TAF weather

Enter ICAO airport designator
Station Type Date Time Source
KBIE METAR 2019/12/13 01:15 UTC NOAA

KBIE 130115Z AUTO 05005KT 10SM CLR 00/M03 A3002 RMK AO2 T00001027


Station Type Date Time Source
KBIE Decoded METAR 2019/12/13 01:15 UTC NOAA

Beatrice Municipal, NE, United States (KBIE) 40-18N 096-45W
Dec 12, 2019 - 08:15 PM EST / 2019.12.13 0115 UTC
Wind: from the NE (050 degrees) at 6 MPH (5 KT):0
Visibility: 10 mile(s):0
Sky conditions: clear
Temperature: 32.0 F (0.0 C)
Windchill: 26 F (-3 C):1
Dew Point: 27.1 F (-2.7 C)
Relative Humidity: 82%
Pressure (altimeter): 30.02 in. Hg (1016 hPa)
ob: KBIE 130115Z AUTO 05005KT 10SM CLR 00/M03 A3002 RMK AO2 T00001027
cycle: 1

Station Type Date Time Source
KBIE TAF UTC NOAA

Error!

Example: see airport list